Time,TemperatureF,DewpointF,PressureIn,WindDirection,WindDirectionDegrees,WindSpeedMPH,WindSpeedGustMPH,Humidity,HourlyPrecipIn,Conditions,Clouds,dailyrainin,SoftwareType,DateUTC
2013-08-10 00:32:00,51.0,47.0,-100.00,WNW,300,1.0,4.0,87,0.00,,,-99.99,,2013-08-10 05:32:00,
2013-08-10 00:43:00,51.0,47.0,-100.00,WNW,300,1.0,4.0,87,0.00,,,-99.99,,2013-08-10 05:43:00,
2013-08-10 00:52:00,51.0,47.0,-100.00,WNW,300,1.0,4.0,87,0.00,,,-99.99,,2013-08-10 05:52:00,
2013-08-10 01:02:00,51.0,47.0,-100.00,WNW,300,1.0,4.0,87,0.00,,,-99.99,,2013-08-10 06:02:00,
2013-08-10 01:11:00,51.0,47.0,-100.00,WNW,300,1.0,4.0,87,0.00,,,-99.99,,2013-08-10 06:11:00,
2013-08-10 01:32:00,52.0,49.0,-100.00,West,280,2.0,3.0,87,0.00,,,-99.99,,2013-08-10 06:32:00,
2013-08-10 01:44:00,52.0,49.0,-100.00,West,280,2.0,3.0,87,0.00,,,-99.99,,2013-08-10 06:44:00,
2013-08-10 01:53:00,52.0,49.0,-100.00,West,280,2.0,3.0,87,0.00,,,-99.99,,2013-08-10 06:53:00,
2013-08-10 02:02:00,52.0,49.0,-100.00,West,280,2.0,3.0,87,0.00,,,-99.99,,2013-08-10 07:02:00,
2013-08-10 02:12:00,52.0,49.0,-100.00,West,280,2.0,3.0,87,0.00,,,-99.99,,2013-08-10 07:12:00,
2013-08-10 02:43:00,51.0,47.0,-100.00,WNW,300,1.0,2.0,86,0.00,,,-99.99,,2013-08-10 07:43:00,
2013-08-10 02:52:00,51.0,47.0,-100.00,WNW,300,1.0,2.0,86,0.00,,,-99.99,,2013-08-10 07:52:00,
2013-08-10 03:01:00,51.0,47.0,-100.00,WNW,300,1.0,2.0,86,0.00,,,-99.99,,2013-08-10 08:01:00,
2013-08-10 03:12:00,51.0,47.0,-100.00,WNW,300,1.0,2.0,86,0.00,,,-99.99,,2013-08-10 08:12:00,
2013-08-10 04:32:00,52.0,48.0,-100.00,WNW,285,2.0,5.0,87,0.00,,,-99.99,,2013-08-10 09:32:00,
2013-08-10 04:43:00,52.0,48.0,-100.00,WNW,285,2.0,5.0,87,0.00,,,-99.99,,2013-08-10 09:43:00,
2013-08-10 04:52:00,52.0,48.0,-100.00,WNW,285,2.0,5.0,87,0.00,,,-99.99,,2013-08-10 09:52:00,
2013-08-10 05:02:00,52.0,48.0,-100.00,WNW,285,2.0,5.0,87,0.00,,,-99.99,,2013-08-10 10:02:00,
2013-08-10 05:11:00,52.0,48.0,-100.00,WNW,285,2.0,5.0,87,0.00,,,-99.99,,2013-08-10 10:11:00,
2013-08-10 05:44:00,53.0,50.0,-100.00,WNW,290,2.0,4.0,87,0.00,,,-99.99,,2013-08-10 10:44:00,
2013-08-10 05:53:00,53.0,50.0,-100.00,WNW,290,2.0,4.0,87,0.00,,,-99.99,,2013-08-10 10:53:00,
2013-08-10 06:02:00,53.0,50.0,-100.00,WNW,290,2.0,4.0,87,0.00,,,-99.99,,2013-08-10 11:02:00,
2013-08-10 06:11:00,53.0,50.0,-100.00,WNW,290,2.0,4.0,87,0.00,,,-99.99,,2013-08-10 11:11:00,
2013-08-10 06:43:00,53.0,49.0,-100.00,WNW,290,1.0,2.0,87,0.00,,,-99.99,,2013-08-10 11:43:00,
2013-08-10 06:53:00,53.0,49.0,-100.00,WNW,290,1.0,2.0,87,0.00,,,-99.99,,2013-08-10 11:53:00,
2013-08-10 07:01:00,53.0,49.0,-100.00,WNW,290,1.0,2.0,87,0.00,,,-99.99,,2013-08-10 12:01:00,
2013-08-10 07:11:00,53.0,49.0,-100.00,WNW,290,1.0,2.0,87,0.00,,,-99.99,,2013-08-10 12:11:00,
2013-08-10 07:42:00,55.0,51.0,-100.00,West,280,3.0,4.0,87,0.00,,,-99.99,,2013-08-10 12:42:00,
2013-08-10 07:52:00,55.0,51.0,-100.00,West,280,3.0,4.0,87,0.00,,,-99.99,,2013-08-10 12:52:00,
2013-08-10 08:01:00,55.0,51.0,-100.00,West,280,3.0,4.0,87,0.00,,,-99.99,,2013-08-10 13:01:00,
2013-08-10 08:11:00,55.0,51.0,-100.00,West,280,3.0,4.0,87,0.00,,,-99.99,,2013-08-10 13:11:00,
2013-08-10 08:32:00,57.0,52.0,-100.00,West,270,2.0,4.0,84,0.00,,,-99.99,,2013-08-10 13:32:00,
2013-08-10 08:43:00,57.0,52.0,-100.00,West,270,2.0,4.0,84,0.00,,,-99.99,,2013-08-10 13:43:00,
2013-08-10 08:52:00,57.0,52.0,-100.00,West,270,2.0,4.0,84,0.00,,,-99.99,,2013-08-10 13:52:00,
2013-08-10 09:02:00,57.0,52.0,-100.00,West,270,2.0,4.0,84,0.00,,,-99.99,,2013-08-10 14:02:00,
2013-08-10 09:12:00,57.0,52.0,-100.00,West,270,2.0,4.0,84,0.00,,,-99.99,,2013-08-10 14:12:00,
2013-08-10 09:43:00,62.0,51.0,-100.00,West,280,2.0,6.0,68,0.00,,,-99.99,,2013-08-10 14:43:00,
2013-08-10 09:53:00,62.0,51.0,-100.00,West,280,2.0,6.0,68,0.00,,,-99.99,,2013-08-10 14:53:00,
2013-08-10 10:02:00,62.0,51.0,-100.00,West,280,2.0,6.0,68,0.00,,,-99.99,,2013-08-10 15:02:00,
2013-08-10 10:12:00,62.0,51.0,-100.00,West,280,2.0,6.0,68,0.00,,,-99.99,,2013-08-10 15:12:00,
2013-08-10 21:02:00,62.0,51.0,-100.00,NW,315,0.0,1.0,69,0.00,,,-99.99,,2013-08-11 02:02:00,
2013-08-10 21:11:00,62.0,51.0,-100.00,NW,315,0.0,1.0,69,0.00,,,-99.99,,2013-08-11 02:11:00,
2013-08-10 21:15:00,57.0,52.0,-100.00,WNW,295,1.0,2.0,82,0.00,,,-99.99,,2013-08-11 02:15:00,
2013-08-10 21:43:00,57.0,52.0,-100.00,WNW,295,1.0,2.0,82,0.00,,,-99.99,,2013-08-11 02:43:00,
2013-08-10 22:05:00,57.0,52.0,-100.00,WNW,295,1.0,2.0,82,0.00,,,-99.99,,2013-08-11 03:05:00,
2013-08-10 22:46:00,55.0,51.0,-100.00,WNW,285,1.0,2.0,85,0.00,,,-99.99,,2013-08-11 03:46:00,
2013-08-10 23:01:00,55.0,51.0,-100.00,WNW,285,1.0,2.0,85,0.00,,,-99.99,,2013-08-11 04:01:00,
2013-08-10 23:12:00,55.0,51.0,-100.00,WNW,285,1.0,2.0,85,0.00,,,-99.99,,2013-08-11 04:12:00,
2013-08-10 23:17:00,54.0,49.0,-100.00,WNW,285,1.0,2.0,86,0.00,,,-99.99,,2013-08-11 04:17:00,
2013-08-10 23:43:00,54.0,49.0,-100.00,WNW,285,1.0,2.0,86,0.00,,,-99.99,,2013-08-11 04:43:00,
2013-08-10 23:53:00,54.0,49.0,-100.00,WNW,285,1.0,2.0,86,0.00,,,-99.99,,2013-08-11 04:53:00,